Impacts TAF Board
For situational awareness. Not to be used for flight planning purposes.
IDs:

KISP - Islip/Macarthur Arpt, NY, US

Issued at 1121 UTC 23 Jun 2021
Updated at 1230 UTC 23 Jun 2021
Potential Impact None Slight Moderate High
Time1156Z 23/13Z 23/14Z 23/15Z 23/16Z 23/17Z 23/18Z 23/19Z 23/20Z 23/21Z 23/22Z 23/23Z 24/00Z 24/01Z>>
Type OBS PRVL PRVL PRVL PRVL PRVL PRVL PRVL PRVL PRVL PRVL PRVL PRVL PRVL
VIS 10 >6 >6 >6 >6 >6 >6 >6 >6 >6 >6 >6 >6 >6
CIG -- -- -- -- -- -- -- -- -- -- -- -- -- --
Cover FEW SKC SKC SKC SKC SKC SKC SKC SKC SKC SKC SKC SKC SKC
FltCat VFR VFR VFR VFR VFR VFR VFR VFR VFR VFR VFR VFR VFR VFR
WX -- -- -- -- -- -- -- -- -- -- -- -- -- --
WDir 290 330 330 330 330 330 330 330 210 210 210 210 210 VRB
WSpd 6 7 7 7 7 7 7 7 9 9 9 9 9 5
WGst -- -- -- -- -- -- -- -- -- -- -- -- -- --
Raw TAF
KISP 231121Z 2312/2412 33007KT P6SM SKC
  FM232000 21009KT P6SM SKC
  FM240100 VRB05KT P6SM SKC


Raw METAR
KISP 231156Z 29006KT 10SM FEW250 16/11 A3013 RMK AO2 SLP202 70091 T01560111 10156 20122 51033
KISP 231056Z 30009KT 10SM FEW150 FEW250 14/11 A3010 RMK AO2 SLP192 T01390106
KISP 230956Z 31006KT 10SM FEW150 FEW250 12/11 A3007 RMK AO2 SLP182 T01220106

METAR Board
Radar Display
Forecast Discussion
For situational awareness. Not to be used for flight planning purposes.